Time;durP1;ratioP1;P1;durP2;ratioP2;P2;SDS_P1;SDS_P2;PMS_P1;PMS_P2;Temp;Humidity;BMP_temperature;BMP_pressure;BME280_temperature;BME280_humidity;BME280_pressure;Samples;Min_cycle;Max_cycle;Signal;HPM_P1;HPM_P2
2021/01/10 00:00:18;;;;;;;53.13;33.03;;;-0.90;1.00;;;;;;5111062;28;20103;-85
2021/01/10 00:02:45;;;;;;;54.20;33.08;;;-0.90;1.00;;;;;;5111315;28;20111;-86
2021/01/10 00:05:26;;;;;;;54.45;32.10;;;-0.90;1.00;;;;;;5109407;28;20033;-85
2021/01/10 00:07:52;;;;;;;48.75;29.95;;;-0.80;1.00;;;;;;5092040;28;20048;-85
2021/01/10 00:10:18;;;;;;;46.20;28.92;;;-0.80;1.00;;;;;;5092609;28;20036;-85
2021/01/10 00:12:45;;;;;;;47.58;29.15;;;-0.90;1.00;;;;;;5111313;28;20037;-86
2021/01/10 00:15:13;;;;;;;44.08;28.02;;;-1.00;1.00;;;;;;5110040;28;20478;-85
2021/01/10 00:17:40;;;;;;;47.83;29.08;;;-0.90;1.00;;;;;;5098054;28;20044;-85
2021/01/10 00:20:08;;;;;;;41.92;27.23;;;-0.90;1.00;;;;;;5107363;28;20027;-85
2021/01/10 00:22:34;;;;;;;45.03;26.30;;;-0.90;1.00;;;;;;5110306;28;20573;-86
2021/01/10 00:24:59;;;;;;;38.13;25.77;;;-0.90;1.00;;;;;;5107541;28;20111;-85
2021/01/10 00:27:26;;;;;;;40.92;26.35;;;-1.00;1.00;;;;;;5096800;28;20016;-86
2021/01/10 00:29:53;;;;;;;46.78;27.92;;;-1.00;1.00;;;;;;5090447;28;20111;-85
2021/01/10 00:32:19;;;;;;;47.00;27.10;;;-1.10;1.00;;;;;;5091866;28;20036;-85
2021/01/10 00:34:45;;;;;;;47.80;26.95;;;-0.70;1.00;;;;;;5092471;28;20071;-85
2021/01/10 00:37:12;;;;;;;45.58;25.33;;;-1.10;1.00;;;;;;5090614;28;20070;-85
2021/01/10 00:39:38;;;;;;;40.03;24.90;;;-1.10;1.00;;;;;;5108558;28;20028;-85
2021/01/10 00:42:08;;;;;;;43.20;24.52;;;-1.10;1.00;;;;;;5092875;28;20413;-85
2021/01/10 00:44:34;;;;;;;41.85;24.25;;;-1.20;1.00;;;;;;5090462;28;20031;-85
2021/01/10 00:46:59;;;;;;;44.58;26.20;;;-1.20;1.00;;;;;;5090407;28;20020;-85
2021/01/10 00:49:25;;;;;;;46.78;27.27;;;-1.20;1.00;;;;;;5091809;28;20213;-85
2021/01/10 00:51:52;;;;;;;47.45;27.50;;;-1.10;1.00;;;;;;5095027;28;20012;-85
2021/01/10 00:54:18;;;;;;;46.63;27.98;;;-1.00;1.00;;;;;;5095397;28;20031;-86
2021/01/10 00:56:43;;;;;;;50.67;27.00;;;-1.00;1.00;;;;;;5092905;28;20036;-85
2021/01/10 00:59:09;;;;;;;48.47;27.42;;;-1.20;1.00;;;;;;5095232;28;20489;-85
2021/01/10 01:01:35;;;;;;;46.00;27.75;;;-1.10;1.00;;;;;;5105270;28;20023;-85
2021/01/10 01:04:00;;;;;;;45.58;27.33;;;-1.20;1.00;;;;;;5099227;28;20024;-85
2021/01/10 01:06:26;;;;;;;56.75;30.40;;;-0.90;1.00;;;;;;5094031;28;20024;-85
2021/01/10 01:08:51;;;;;;;56.92;31.10;;;-1.30;1.00;;;;;;5095288;28;20028;-85
2021/01/10 01:11:29;;;;;;;49.75;29.50;;;-1.20;1.00;;;;;;5093605;28;20118;-85
2021/01/10 01:13:54;;;;;;;47.83;29.25;;;-1.20;1.00;;;;;;5094643;28;20383;-85
2021/01/10 01:16:20;;;;;;;47.85;27.40;;;-1.20;1.00;;;;;;5104114;28;20061;-85
2021/01/10 01:18:46;;;;;;;46.40;27.35;;;-1.20;1.00;;;;;;5109209;28;20441;-86
2021/01/10 01:21:15;;;;;;;44.38;27.08;;;-1.20;1.00;;;;;;5101009;28;20015;-85
2021/01/10 01:23:41;;;;;;;43.13;26.00;;;-1.20;1.00;;;;;;5110572;28;20119;-85
2021/01/10 01:26:06;;;;;;;40.10;25.30;;;-1.10;1.00;;;;;;5097660;28;20116;-86
2021/01/10 01:28:32;;;;;;;44.15;26.40;;;-1.20;1.00;;;;;;5094389;28;20115;-85
2021/01/10 01:30:57;;;;;;;38.28;24.63;;;-1.10;1.00;;;;;;5093339;28;20027;-86
2021/01/10 01:33:23;;;;;;;40.17;24.70;;;-1.00;1.00;;;;;;5094539;28;20032;-85
2021/01/10 01:35:49;;;;;;;40.05;25.77;;;-1.10;1.00;;;;;;5093217;28;20035;-85
2021/01/10 01:38:14;;;;;;;46.03;26.00;;;-1.10;1.00;;;;;;5092845;28;20021;-85
2021/01/10 01:40:40;;;;;;;42.05;25.35;;;-1.20;1.00;;;;;;5107849;28;20038;-85
2021/01/10 01:43:09;;;;;;;40.70;25.42;;;-1.20;1.00;;;;;;5114138;28;20480;-85
2021/01/10 01:45:35;;;;;;;43.90;25.45;;;-1.10;1.00;;;;;;5114877;28;20027;-85
2021/01/10 01:48:01;;;;;;;44.13;25.90;;;-1.10;1.00;;;;;;5113566;28;20043;-86
2021/01/10 01:50:27;;;;;;;41.53;25.20;;;-1.10;1.00;;;;;;5095265;27;20103;-85
2021/01/10 01:52:53;;;;;;;40.13;24.40;;;-1.10;1.00;;;;;;5093060;28;20154;-85
2021/01/10 01:55:18;;;;;;;39.80;24.52;;;-1.10;1.00;;;;;;5096366;28;20107;-85
2021/01/10 01:57:44;;;;;;;43.20;25.65;;;-0.90;1.00;;;;;;5093893;28;20105;-85
2021/01/10 02:00:10;;;;;;;42.58;25.63;;;-1.00;1.00;;;;;;5110748;28;20024;-85
2021/01/10 02:02:36;;;;;;;41.20;25.95;;;-1.00;1.00;;;;;;5112445;28;20022;-85
2021/01/10 02:05:07;;;;;;;42.72;25.92;;;-1.00;1.00;;;;;;5114525;28;20023;-85
2021/01/10 02:08:04;;;;;;;41.28;25.35;;;-0.70;1.00;;;;;;5114397;28;20448;-85
2021/01/10 02:10:34;;;;;;;43.83;27.20;;;-1.10;1.00;;;;;;5112367;28;20028;-85
2021/01/10 02:13:02;;;;;;;43.42;26.77;;;-1.10;1.00;;;;;;5109544;28;20121;-85
2021/01/10 02:15:35;;;;;;;38.85;24.55;;;-1.20;1.00;;;;;;5110796;28;20024;-84
2021/01/10 02:18:03;;;;;;;38.13;24.75;;;-1.20;1.00;;;;;;5112789;28;20027;-86
2021/01/10 02:20:38;;;;;;;39.70;25.08;;;-1.30;1.00;;;;;;5106212;28;20016;-85
2021/01/10 02:23:13;;;;;;;42.13;25.92;;;-1.30;1.00;;;;;;5101982;28;20054;-86
2021/01/10 02:25:42;;;;;;;33.88;23.30;;;-1.30;1.00;;;;;;5106832;28;20019;-85
2021/01/10 02:28:11;;;;;;;36.65;22.98;;;-1.30;1.00;;;;;;5093297;28;20099;-85
2021/01/10 02:30:42;;;;;;;39.03;23.05;;;-1.40;1.00;;;;;;5093467;28;20106;-85
2021/01/10 02:33:17;;;;;;;37.92;22.30;;;-1.30;1.00;;;;;;5096031;28;20107;-85
2021/01/10 02:35:44;;;;;;;37.80;23.20;;;-1.40;1.00;;;;;;5092043;28;20082;-85
2021/01/10 02:38:41;;;;;;;36.35;23.63;;;-1.40;1.00;;;;;;5092185;28;20101;-85
2021/01/10 02:41:14;;;;;;;37.85;22.40;;;-1.30;1.00;;;;;;5087223;28;20481;-85
2021/01/10 02:43:49;;;;;;;39.38;23.98;;;-1.50;1.00;;;;;;5095864;28;20034;-85
2021/01/10 02:46:15;;;;;;;36.60;22.85;;;-1.60;1.00;;;;;;5091799;28;20026;-85
2021/01/10 02:48:41;;;;;;;41.97;25.00;;;-1.70;1.00;;;;;;5093183;28;20401;-85
2021/01/10 02:51:07;;;;;;;36.17;22.83;;;-1.50;1.00;;;;;;5093263;28;20481;-85
2021/01/10 02:53:35;;;;;;;36.90;23.00;;;-1.30;1.00;;;;;;5093198;28;20077;-85
2021/01/10 02:56:00;;;;;;;37.20;22.58;;;-1.30;1.00;;;;;;5092475;28;20520;-85
2021/01/10 02:58:28;;;;;;;38.13;22.92;;;-1.20;1.00;;;;;;5095636;28;20020;-85
2021/01/10 03:00:59;;;;;;;38.10;24.02;;;-1.20;1.00;;;;;;5112697;28;20514;-84
2021/01/10 03:03:28;;;;;;;37.22;22.58;;;-1.20;1.00;;;;;;5111113;28;20477;-86
2021/01/10 03:05:54;;;;;;;39.08;22.67;;;-1.20;1.00;;;;;;5092998;28;20478;-85
2021/01/10 03:08:20;;;;;;;35.00;22.08;;;-1.30;1.00;;;;;;5095465;28;20016;-85
2021/01/10 03:10:48;;;;;;;36.53;22.85;;;-1.20;1.00;;;;;;5111569;28;20077;-85
2021/01/10 03:13:15;;;;;;;36.17;22.00;;;-1.30;1.00;;;;;;5093934;28;20077;-85
2021/01/10 03:15:41;;;;;;;33.75;20.63;;;-1.30;1.00;;;;;;5096958;28;20024;-85
2021/01/10 03:18:18;;;;;;;36.40;22.27;;;-1.30;1.00;;;;;;5101679;28;20538;-85
2021/01/10 03:20:45;;;;;;;33.50;21.60;;;-1.30;1.00;;;;;;5107035;28;20024;-85
2021/01/10 03:23:11;;;;;;;35.03;21.30;;;-1.30;1.00;;;;;;5100539;28;20043;-85
2021/01/10 03:25:37;;;;;;;33.72;21.30;;;-1.30;1.00;;;;;;5111633;28;20020;-85
2021/01/10 03:28:02;;;;;;;34.60;21.45;;;-1.20;1.00;;;;;;5099587;28;20032;-85
2021/01/10 03:30:28;;;;;;;34.25;21.15;;;-1.10;1.00;;;;;;5092492;28;20417;-85
2021/01/10 03:32:54;;;;;;;33.60;20.48;;;-1.20;1.00;;;;;;5092038;28;20028;-85
2021/01/10 03:35:20;;;;;;;33.95;21.02;;;-1.20;1.00;;;;;;5107568;28;20454;-85
2021/01/10 03:37:46;;;;;;;32.25;19.63;;;-1.10;1.00;;;;;;5092078;28;20114;-85
2021/01/10 03:40:13;;;;;;;33.05;20.25;;;-1.10;1.00;;;;;;5109253;28;20094;-85
2021/01/10 03:42:39;;;;;;;32.20;20.83;;;-1.20;1.00;;;;;;5106456;28;20024;-85
2021/01/10 03:45:06;;;;;;;33.60;20.33;;;-1.30;1.00;;;;;;5112803;28;20102;-85
2021/01/10 03:47:31;;;;;;;31.98;20.08;;;-1.50;1.00;;;;;;5111632;28;20161;-85
2021/01/10 03:49:57;;;;;;;33.72;20.55;;;-1.40;1.00;;;;;;5112649;28;20486;-85
2021/01/10 03:52:23;;;;;;;33.47;21.00;;;-1.20;1.00;;;;;;5111132;28;20126;-85
2021/01/10 03:54:48;;;;;;;33.00;19.98;;;-1.30;1.00;;;;;;5111345;28;20035;-85
2021/01/10 03:57:14;;;;;;;36.45;20.75;;;-1.30;1.00;;;;;;5107954;28;20032;-85
2021/01/10 03:59:39;;;;;;;34.17;20.58;;;-1.40;1.00;;;;;;5094584;28;20020;-84
2021/01/10 04:02:05;;;;;;;31.85;18.95;;;-1.30;1.00;;;;;;5095287;28;20027;-85
2021/01/10 04:04:31;;;;;;;33.63;19.42;;;-1.30;1.00;;;;;;5110077;28;20027;-85
2021/01/10 04:06:56;;;;;;;32.92;19.60;;;-1.20;1.00;;;;;;5111153;28;20099;-85
2021/01/10 04:09:22;;;;;;;33.67;20.92;;;-1.30;1.00;;;;;;5112660;28;20054;-85
2021/01/10 04:11:48;;;;;;;32.22;20.02;;;-1.40;1.00;;;;;;5108924;28;20036;-85
2021/01/10 04:14:13;;;;;;;30.15;18.42;;;-1.30;1.00;;;;;;5112386;28;20055;-85
2021/01/10 04:16:39;;;;;;;30.45;18.08;;;-1.40;1.00;;;;;;5112259;28;20115;-85
2021/01/10 04:19:05;;;;;;;33.22;19.45;;;-1.40;1.00;;;;;;5103326;28;20089;-85
2021/01/10 04:21:32;;;;;;;32.03;17.35;;;-1.50;1.00;;;;;;5092178;28;20020;-85
2021/01/10 04:23:57;;;;;;;30.42;17.67;;;-1.50;1.00;;;;;;5090952;28;20042;-85
2021/01/10 04:26:23;;;;;;;32.40;19.50;;;-1.50;1.00;;;;;;5094923;28;20088;-84
2021/01/10 04:28:48;;;;;;;33.95;20.98;;;-1.40;1.00;;;;;;5114335;28;20476;-85
2021/01/10 04:31:16;;;;;;;38.83;23.70;;;-1.40;1.00;;;;;;5116450;28;20033;-85
2021/01/10 04:33:42;;;;;;;33.60;19.15;;;-1.30;1.00;;;;;;5112026;28;20020;-85
2021/01/10 04:36:07;;;;;;;29.27;17.58;;;-1.20;1.00;;;;;;5115560;28;20038;-85
2021/01/10 04:38:33;;;;;;;32.42;18.10;;;-1.10;1.00;;;;;;5114819;28;20020;-85
2021/01/10 04:40:58;;;;;;;31.10;18.75;;;-1.00;1.00;;;;;;5114781;28;20031;-85
2021/01/10 04:43:24;;;;;;;28.88;18.08;;;-0.90;1.00;;;;;;5097559;28;20512;-85
2021/01/10 04:45:50;;;;;;;31.88;18.83;;;-0.90;1.00;;;;;;5094197;28;20118;-85
2021/01/10 04:48:16;;;;;;;31.48;18.60;;;-0.90;1.00;;;;;;5094213;28;20481;-85
2021/01/10 04:50:43;;;;;;;29.42;18.67;;;-0.90;1.00;;;;;;5093903;28;20126;-85
2021/01/10 04:53:10;;;;;;;29.83;18.52;;;-1.00;1.00;;;;;;5094333;28;20485;-85
2021/01/10 04:55:38;;;;;;;31.00;18.77;;;-0.90;1.00;;;;;;5094084;28;20028;-85
2021/01/10 04:58:07;;;;;;;32.55;18.63;;;-0.90;1.00;;;;;;5095807;28;20031;-85
2021/01/10 05:00:35;;;;;;;32.38;19.38;;;-0.90;1.00;;;;;;5115443;28;20035;-85
2021/01/10 05:03:06;;;;;;;31.90;20.13;;;-0.70;1.00;;;;;;5115633;27;20028;-85
2021/01/10 05:05:36;;;;;;;30.92;18.33;;;-0.70;1.00;;;;;;5115358;28;20031;-85
2021/01/10 05:08:12;;;;;;;30.17;18.63;;;-0.60;1.00;;;;;;5115522;28;20095;-85
2021/01/10 05:10:39;;;;;;;32.38;18.85;;;-0.50;1.00;;;;;;5115472;28;20051;-85
2021/01/10 05:13:06;;;;;;;29.95;18.20;;;-0.70;1.00;;;;;;5095354;28;20035;-85
2021/01/10 05:15:32;;;;;;;30.23;18.25;;;-0.70;1.00;;;;;;5113699;28;20062;-86
2021/01/10 05:17:59;;;;;;;28.25;17.52;;;-0.80;1.00;;;;;;5114728;28;20015;-85
2021/01/10 05:20:32;;;;;;;27.60;18.02;;;-0.90;1.00;;;;;;5096862;28;20104;-85
2021/01/10 05:22:59;;;;;;;27.67;17.52;;;-1.00;1.00;;;;;;5114994;28;20444;-86
2021/01/10 05:25:28;;;;;;;28.33;17.08;;;-1.00;1.00;;;;;;5111243;28;20028;-85
2021/01/10 05:27:55;;;;;;;29.67;17.55;;;-1.10;1.00;;;;;;5108777;28;20028;-85
2021/01/10 05:30:32;;;;;;;32.55;18.85;;;-1.10;1.00;;;;;;5107524;28;20106;-85
2021/01/10 05:33:08;;;;;;;28.13;16.90;;;-0.80;1.00;;;;;;5093223;28;20020;-85
2021/01/10 05:35:53;;;;;;;26.90;16.85;;;-1.00;1.00;;;;;;5092349;28;20032;-85
2021/01/10 05:38:26;;;;;;;26.40;15.63;;;-1.00;1.00;;;;;;5093403;28;20107;-85
2021/01/10 05:40:56;;;;;;;30.25;17.23;;;-0.60;1.00;;;;;;5094117;28;20024;-85
2021/01/10 05:43:23;;;;;;;26.73;16.33;;;-0.90;1.00;;;;;;5093286;28;20024;-85
2021/01/10 05:45:49;;;;;;;26.13;16.25;;;-0.80;1.00;;;;;;5094094;28;20024;-85
2021/01/10 05:48:17;;;;;;;27.80;16.80;;;-0.70;1.00;;;;;;5094407;28;20508;-85
2021/01/10 05:50:50;;;;;;;28.50;17.05;;;-0.70;1.00;;;;;;5102735;28;20492;-85
2021/01/10 05:53:23;;;;;;;26.83;15.68;;;-0.80;1.00;;;;;;5114691;28;20564;-85
2021/01/10 05:55:55;;;;;;;27.73;15.75;;;-0.70;1.00;;;;;;5105754;28;20066;-85
2021/01/10 05:58:23;;;;;;;26.40;16.38;;;-0.70;1.00;;;;;;5114590;28;20031;-85
2021/01/10 06:00:50;;;;;;;27.02;16.60;;;-0.30;1.00;;;;;;5113164;28;20032;-85
2021/01/10 06:03:17;;;;;;;26.80;16.95;;;-0.70;1.00;;;;;;5112695;28;20020;-85
2021/01/10 06:06:00;;;;;;;25.52;16.00;;;-0.60;1.00;;;;;;5096544;28;20123;-85
2021/01/10 06:08:37;;;;;;;27.13;16.70;;;-0.60;1.00;;;;;;5106514;28;20484;-85
2021/01/10 06:11:23;;;;;;;23.88;15.40;;;-0.50;1.00;;;;;;5106692;28;20110;-85
2021/01/10 06:14:03;;;;;;;24.90;15.70;;;-0.60;1.00;;;;;;5092554;28;20051;-85
2021/01/10 06:16:34;;;;;;;25.48;15.40;;;-0.50;1.00;;;;;;5105106;28;20102;-85
2021/01/10 06:19:11;;;;;;;30.15;16.92;;;-0.50;1.00;;;;;;5111761;28;20023;-85
2021/01/10 06:21:37;;;;;;;27.45;16.40;;;-0.30;1.00;;;;;;5109713;28;20030;-85
2021/01/10 06:24:05;;;;;;;24.95;15.90;;;-0.70;1.00;;;;;;5111865;28;20040;-85
2021/01/10 06:26:33;;;;;;;25.48;16.23;;;-0.60;1.00;;;;;;5103317;28;20073;-86
2021/01/10 06:29:05;;;;;;;26.73;15.57;;;-0.70;1.00;;;;;;5093433;28;20020;-86
2021/01/10 06:31:33;;;;;;;24.58;15.40;;;-0.70;1.00;;;;;;5093780;28;20024;-85
2021/01/10 06:34:06;;;;;;;26.30;16.15;;;-0.70;1.00;;;;;;5092321;28;20024;-85
2021/01/10 06:36:42;;;;;;;25.88;15.43;;;-0.70;1.00;;;;;;5092057;28;20390;-85
2021/01/10 06:39:10;;;;;;;24.60;15.82;;;-0.70;1.00;;;;;;5093522;28;20020;-85
2021/01/10 06:41:53;;;;;;;25.20;15.35;;;-0.60;1.00;;;;;;5105914;28;20507;-85
2021/01/10 06:44:20;;;;;;;25.27;16.08;;;-0.60;1.00;;;;;;5096705;28;20035;-85
2021/01/10 06:46:53;;;;;;;25.88;16.30;;;-0.70;1.00;;;;;;5093248;28;20037;-85
2021/01/10 06:49:20;;;;;;;25.00;15.88;;;-0.60;1.00;;;;;;5101236;28;20125;-85
2021/01/10 06:51:49;;;;;;;25.17;15.40;;;-0.60;1.00;;;;;;5111591;28;20027;-85
2021/01/10 06:54:15;;;;;;;28.00;16.20;;;-0.50;1.00;;;;;;5111886;28;20042;-86
2021/01/10 06:56:51;;;;;;;25.90;16.02;;;-0.50;1.00;;;;;;5103067;28;20032;-85
2021/01/10 06:59:26;;;;;;;25.85;15.52;;;-0.60;1.00;;;;;;5093474;28;20020;-85
2021/01/10 07:01:52;;;;;;;25.30;15.93;;;-0.60;1.00;;;;;;5091475;28;20024;-85
2021/01/10 07:04:22;;;;;;;24.50;15.82;;;-0.60;1.00;;;;;;5092997;28;20551;-85
2021/01/10 07:06:49;;;;;;;25.20;15.75;;;-0.60;1.00;;;;;;5091771;28;20031;-85
2021/01/10 07:09:16;;;;;;;30.27;17.98;;;-0.50;1.00;;;;;;5092794;28;20149;-85
2021/01/10 07:11:42;;;;;;;29.35;18.80;;;-0.40;1.00;;;;;;5109227;28;20031;-85
2021/01/10 07:14:17;;;;;;;29.75;17.50;;;-0.40;1.00;;;;;;5113057;28;20161;-85
2021/01/10 07:16:44;;;;;;;27.10;17.45;;;-0.60;1.00;;;;;;5112280;28;20404;-85
2021/01/10 07:19:13;;;;;;;28.10;17.73;;;-0.50;1.00;;;;;;5109046;28;20016;-85
2021/01/10 07:21:42;;;;;;;26.88;16.45;;;-0.50;1.00;;;;;;5091577;28;20026;-85
2021/01/10 07:24:16;;;;;;;23.80;15.63;;;-0.60;1.00;;;;;;5100026;28;20105;-85
2021/01/10 07:26:49;;;;;;;26.45;17.77;;;-0.60;1.00;;;;;;5104871;28;20057;-85
2021/01/10 07:29:33;;;;;;;27.65;18.60;;;-0.40;1.00;;;;;;5091298;28;20043;-85
2021/01/10 07:32:02;;;;;;;28.90;19.00;;;-0.50;1.00;;;;;;5092242;28;20108;-85
2021/01/10 07:34:29;;;;;;;27.90;17.17;;;-0.60;1.00;;;;;;5092680;28;20034;-85
2021/01/10 07:36:56;;;;;;;31.77;19.55;;;-0.50;1.00;;;;;;5091244;28;20032;-86
2021/01/10 07:39:26;;;;;;;30.02;19.80;;;0.20;1.00;;;;;;5097992;28;20025;-86
2021/01/10 07:42:11;;;;;;;28.17;18.58;;;-0.50;1.00;;;;;;5092416;28;20049;-86
2021/01/10 07:44:50;;;;;;;30.50;19.77;;;-0.40;1.00;;;;;;5091547;28;20097;-86
2021/01/10 07:47:17;;;;;;;35.53;23.00;;;-0.50;1.00;;;;;;5096948;28;20016;-86
2021/01/10 07:49:50;;;;;;;29.90;20.02;;;-0.40;1.00;;;;;;5109308;28;20478;-86
2021/01/10 07:52:17;;;;;;;25.38;17.45;;;-0.30;1.00;;;;;;5093222;28;20028;-86
2021/01/10 07:54:50;;;;;;;27.13;16.73;;;-0.30;1.00;;;;;;5103902;28;20442;-86
2021/01/10 07:57:22;;;;;;;24.85;16.33;;;-0.20;1.00;;;;;;5094829;28;20496;-86
2021/01/10 08:00:24;;;;;;;28.40;17.73;;;-0.20;1.00;;;;;;5112526;28;20114;-86
2021/01/10 08:03:02;;;;;;;24.27;15.27;;;-0.10;1.00;;;;;;5116388;28;20059;-85
2021/01/10 08:05:31;;;;;;;23.48;15.10;;;-0.10;1.00;;;;;;5114909;28;20156;-85
2021/01/10 08:08:04;;;;;;;27.15;16.63;;;-0.10;1.00;;;;;;5095267;28;20111;-86
2021/01/10 08:10:50;;;;;;;24.45;16.52;;;-0.10;1.00;;;;;;5110721;28;20148;-85
2021/01/10 08:13:39;;;;;;;24.02;15.00;;;0.00;1.00;;;;;;5109437;28;20027;-85
2021/01/10 08:16:13;;;;;;;23.88;16.38;;;0.00;1.00;;;;;;5111813;27;20027;-85
2021/01/10 08:18:42;;;;;;;23.92;17.13;;;0.00;1.00;;;;;;5100428;28;20022;-87
2021/01/10 08:21:10;;;;;;;22.08;14.25;;;0.30;1.00;;;;;;5107704;28;20024;-86
2021/01/10 08:23:37;;;;;;;21.67;14.70;;;-0.20;1.00;;;;;;5095668;28;20044;-86
2021/01/10 08:26:14;;;;;;;20.60;13.93;;;0.30;1.00;;;;;;5096183;28;20024;-84
2021/01/10 08:28:43;;;;;;;22.08;14.00;;;0.20;1.00;;;;;;5094153;28;20032;-85
2021/01/10 08:31:11;;;;;;;22.70;14.55;;;0.60;1.00;;;;;;5111782;28;20027;-85
2021/01/10 08:33:37;;;;;;;25.40;15.20;;;0.10;1.00;;;;;;5115272;28;20035;-85
2021/01/10 08:36:11;;;;;;;24.85;15.15;;;0.50;1.00;;;;;;5116722;28;20031;-85
2021/01/10 08:38:47;;;;;;;22.73;14.75;;;0.20;1.00;;;;;;5116265;28;20024;-85
2021/01/10 08:41:23;;;;;;;21.83;14.70;;;0.30;1.00;;;;;;5116035;28;20055;-84
2021/01/10 08:43:58;;;;;;;22.88;15.18;;;0.40;1.00;;;;;;5104197;28;20062;-85
2021/01/10 08:46:25;;;;;;;22.83;14.60;;;0.30;1.00;;;;;;5094105;28;20016;-85
2021/01/10 08:48:51;;;;;;;19.75;13.25;;;0.40;1.00;;;;;;5115817;28;20032;-85
2021/01/10 08:51:30;;;;;;;20.65;14.27;;;0.70;1.00;;;;;;5115225;28;20016;-85
2021/01/10 08:53:56;;;;;;;23.52;14.50;;;0.30;1.00;;;;;;5114569;28;20023;-87
2021/01/10 08:56:22;;;;;;;18.85;14.18;;;0.30;1.00;;;;;;5115619;28;20495;-91
2021/01/10 08:58:53;;;;;;;23.58;15.23;;;0.80;1.00;;;;;;5100997;28;20032;-87
2021/01/10 09:01:20;;;;;;;21.42;13.63;;;0.30;1.00;;;;;;5095263;28;20107;-85
2021/01/10 09:04:02;;;;;;;25.38;14.98;;;0.20;1.00;;;;;;5095431;28;20320;-85
2021/01/10 09:07:01;;;;;;;22.50;15.15;;;0.30;1.00;;;;;;5093858;28;20028;-85
2021/01/10 09:09:51;;;;;;;24.58;14.85;;;0.40;1.00;;;;;;5090655;28;20071;-85
2021/01/10 09:12:38;;;;;;;23.35;14.30;;;0.40;1.00;;;;;;5114097;28;20357;-85
2021/01/10 09:15:22;;;;;;;22.83;15.35;;;0.30;1.00;;;;;;5094896;28;20123;-85
2021/01/10 09:18:11;;;;;;;21.27;14.25;;;0.10;1.00;;;;;;5093653;28;20028;-85
2021/01/10 09:20:48;;;;;;;22.67;14.80;;;0.30;1.00;;;;;;5094865;28;20020;-85
2021/01/10 09:23:16;;;;;;;23.35;14.25;;;0.20;1.00;;;;;;5094804;28;20048;-86
2021/01/10 09:25:42;;;;;;;23.75;14.60;;;0.10;1.00;;;;;;5093145;28;20032;-86
2021/01/10 09:28:15;;;;;;;22.88;14.13;;;0.90;1.00;;;;;;5094221;28;20073;-86
2021/01/10 09:30:57;;;;;;;23.13;14.02;;;0.30;1.00;;;;;;5113829;28;20055;-86
2021/01/10 09:33:24;;;;;;;20.60;13.43;;;0.30;1.00;;;;;;5114990;27;20037;-85
2021/01/10 09:35:50;;;;;;;24.25;14.52;;;0.50;1.00;;;;;;5114830;28;20020;-85
2021/01/10 09:38:21;;;;;;;22.85;14.85;;;0.60;1.00;;;;;;5115070;28;20030;-86
2021/01/10 09:41:13;;;;;;;23.13;15.07;;;0.70;1.00;;;;;;5113097;28;20026;-86
2021/01/10 09:43:49;;;;;;;22.98;15.45;;;0.60;1.00;;;;;;5104428;28;20031;-87
2021/01/10 09:46:38;;;;;;;23.33;15.45;;;0.70;1.00;;;;;;5113723;28;20023;-86
2021/01/10 09:49:05;;;;;;;23.73;14.98;;;0.70;1.00;;;;;;5108949;28;20028;-86
2021/01/10 09:51:41;;;;;;;24.50;16.13;;;0.70;1.00;;;;;;5108176;28;20026;-87
2021/01/10 09:54:15;;;;;;;20.90;14.23;;;0.60;1.00;;;;;;5114530;28;20027;-86
2021/01/10 09:56:42;;;;;;;21.23;14.15;;;0.60;1.00;;;;;;5113988;28;20020;-87
2021/01/10 09:59:36;;;;;;;21.73;14.82;;;1.20;1.00;;;;;;5109568;28;20027;-86
2021/01/10 10:02:08;;;;;;;21.65;14.68;;;0.60;1.00;;;;;;5113354;28;20031;-87
2021/01/10 10:04:34;;;;;;;21.88;14.60;;;1.00;1.00;;;;;;5114518;28;20416;-87
2021/01/10 10:07:00;;;;;;;22.83;14.77;;;0.50;1.00;;;;;;5113149;28;20015;-86
2021/01/10 10:09:45;;;;;;;22.25;14.20;;;0.60;1.00;;;;;;5114048;28;20102;-87
2021/01/10 10:12:11;;;;;;;23.42;14.68;;;0.60;1.00;;;;;;5112297;28;20035;-88
2021/01/10 10:14:36;;;;;;;21.75;14.60;;;0.50;1.00;;;;;;5111966;28;20039;-87
2021/01/10 10:17:02;;;;;;;22.65;15.75;;;0.70;1.00;;;;;;5112727;28;20439;-87
2021/01/10 10:19:28;;;;;;;21.02;13.70;;;0.60;1.00;;;;;;5113196;28;20023;-87
2021/01/10 10:21:53;;;;;;;24.00;15.85;;;0.60;1.00;;;;;;5112372;28;20020;-87
2021/01/10 10:24:19;;;;;;;25.55;16.58;;;0.70;1.00;;;;;;5112420;28;20596;-87
2021/01/10 10:26:45;;;;;;;26.90;16.98;;;0.70;1.00;;;;;;5111542;28;20031;-85
2021/01/10 10:29:10;;;;;;;46.97;24.55;;;0.80;1.00;;;;;;5113333;27;20489;-88
2021/01/10 10:31:36;;;;;;;24.70;16.00;;;0.70;1.00;;;;;;5112524;28;20026;-87
2021/01/10 10:34:02;;;;;;;27.83;17.88;;;0.80;1.00;;;;;;5111494;28;20035;-87
2021/01/10 10:36:27;;;;;;;38.58;23.05;;;1.00;1.00;;;;;;5112516;28;20028;-87
2021/01/10 10:38:53;;;;;;;31.50;20.40;;;1.00;1.00;;;;;;5113088;28;20066;-86
2021/01/10 10:41:18;;;;;;;30.08;18.83;;;1.20;1.00;;;;;;5113199;28;20081;-86
2021/01/10 10:43:44;;;;;;;23.20;15.93;;;1.00;1.00;;;;;;5098931;28;20040;-86
2021/01/10 10:46:09;;;;;;;22.40;15.30;;;1.30;1.00;;;;;;5093337;28;20028;-86
2021/01/10 10:48:35;;;;;;;22.67;15.25;;;0.80;1.00;;;;;;5093187;28;20493;-86
2021/01/10 10:51:01;;;;;;;24.13;16.05;;;0.80;1.00;;;;;;5091940;28;20111;-86
2021/01/10 10:53:26;;;;;;;24.05;15.80;;;0.80;1.00;;;;;;5092859;28;20391;-86
2021/01/10 10:55:52;;;;;;;22.10;15.05;;;0.90;1.00;;;;;;5092931;28;20085;-86
2021/01/10 10:58:19;;;;;;;21.55;14.63;;;0.90;1.00;;;;;;5100889;28;20031;-86
2021/01/10 11:00:45;;;;;;;22.33;13.93;;;0.80;1.00;;;;;;5101817;27;20020;-86
2021/01/10 11:03:10;;;;;;;24.23;16.17;;;0.90;1.00;;;;;;5092128;28;20363;-86
2021/01/10 11:05:37;;;;;;;25.75;16.27;;;1.10;1.00;;;;;;5097146;28;20418;-88
2021/01/10 11:08:03;;;;;;;24.83;14.50;;;1.30;1.00;;;;;;5112799;28;20545;-87
2021/01/10 11:10:33;;;;;;;21.73;14.32;;;1.20;1.00;;;;;;5111740;28;20027;-86
2021/01/10 11:12:58;;;;;;;27.08;16.88;;;1.10;1.00;;;;;;5094894;28;20032;-87
2021/01/10 11:15:24;;;;;;;23.05;16.10;;;1.00;1.00;;;;;;5114215;27;20077;-86
2021/01/10 11:17:51;;;;;;;21.38;14.40;;;1.20;1.00;;;;;;5128058;27;20064;-87
2021/01/10 11:20:17;;;;;;;19.45;14.05;;;1.00;1.00;;;;;;5091078;28;20024;-87
2021/01/10 11:22:42;;;;;;;23.90;17.02;;;1.50;1.00;;;;;;5092963;28;20126;-87
2021/01/10 11:25:09;;;;;;;23.30;15.75;;;1.10;1.00;;;;;;5111369;28;20024;-86
2021/01/10 11:27:35;;;;;;;24.75;15.55;;;1.30;1.00;;;;;;5106005;28;20028;-87
2021/01/10 11:30:00;;;;;;;24.27;15.63;;;1.80;1.00;;;;;;5091343;28;20554;-87
2021/01/10 11:32:26;;;;;;;20.80;14.70;;;1.40;1.00;;;;;;5112150;28;20412;-87
2021/01/10 11:34:51;;;;;;;22.80;14.98;;;1.30;1.00;;;;;;5110038;28;20084;-87
2021/01/10 11:37:20;;;;;;;20.23;14.68;;;1.30;1.00;;;;;;5112102;28;20448;-87
2021/01/10 11:39:46;;;;;;;22.95;14.50;;;1.60;1.00;;;;;;5111162;28;20024;-87
2021/01/10 11:42:14;;;;;;;21.92;14.57;;;1.70;1.00;;;;;;5103330;28;20020;-86
2021/01/10 11:44:39;;;;;;;23.25;15.55;;;1.40;1.00;;;;;;5108068;28;20020;-88
2021/01/10 11:47:05;;;;;;;23.58;15.98;;;1.50;1.00;;;;;;5111457;28;20031;-84
2021/01/10 11:49:32;;;;;;;19.27;14.13;;;1.60;1.00;;;;;;5113077;28;20401;-85
2021/01/10 11:51:57;;;;;;;22.17;14.82;;;1.60;1.00;;;;;;5111530;28;20027;-86
2021/01/10 11:54:23;;;;;;;22.95;15.98;;;1.50;1.00;;;;;;5112562;28;20528;-87
2021/01/10 11:56:49;;;;;;;22.02;15.32;;;2.10;1.00;;;;;;5102286;28;20027;-86
2021/01/10 11:59:16;;;;;;;23.98;15.40;;;1.70;1.00;;;;;;5109677;28;20076;-88
2021/01/10 12:01:42;;;;;;;23.90;14.65;;;1.80;1.00;;;;;;5111156;28;20027;-86
2021/01/10 12:04:08;;;;;;;21.63;14.82;;;2.20;1.00;;;;;;5112485;28;20026;-86
2021/01/10 12:06:35;;;;;;;23.45;14.73;;;2.10;1.00;;;;;;5112238;28;20111;-86
2021/01/10 12:09:03;;;;;;;23.20;15.80;;;1.70;1.00;;;;;;5112299;28;20028;-86
2021/01/10 12:11:29;;;;;;;19.95;13.85;;;1.80;1.00;;;;;;5108723;28;20038;-87
2021/01/10 12:13:55;;;;;;;23.23;15.07;;;2.20;1.00;;;;;;5090803;28;20024;-87
2021/01/10 12:16:21;;;;;;;21.23;14.20;;;1.80;1.00;;;;;;5101887;28;20028;-86
2021/01/10 12:18:47;;;;;;;20.48;14.38;;;1.60;1.00;;;;;;5111202;28;20024;-87
2021/01/10 12:21:14;;;;;;;27.40;17.10;;;2.00;1.00;;;;;;5112330;28;20027;-87
2021/01/10 12:23:41;;;;;;;21.98;14.32;;;1.90;1.00;;;;;;5112655;28;20078;-85
2021/01/10 12:26:10;;;;;;;21.75;14.35;;;1.70;1.00;;;;;;5108156;28;20039;-85
2021/01/10 12:28:37;;;;;;;25.52;15.30;;;1.70;1.00;;;;;;5096823;28;20024;-85
2021/01/10 12:31:03;;;;;;;25.50;15.88;;;1.80;1.00;;;;;;5091069;28;20058;-86
2021/01/10 12:33:29;;;;;;;23.83;15.52;;;2.20;1.00;;;;;;5091101;28;20026;-85
2021/01/10 12:35:55;;;;;;;20.73;14.02;;;1.90;1.00;;;;;;5090254;28;20512;-85
2021/01/10 12:38:20;;;;;;;24.77;15.32;;;2.10;1.00;;;;;;5103446;28;20047;-85
2021/01/10 12:40:46;;;;;;;22.65;14.85;;;1.90;1.00;;;;;;5111388;28;20031;-85
2021/01/10 12:43:12;;;;;;;20.85;14.93;;;2.10;1.00;;;;;;5095388;28;20017;-85
2021/01/10 12:45:38;;;;;;;20.90;13.90;;;2.20;1.00;;;;;;5092004;28;20382;-85
2021/01/10 12:48:04;;;;;;;20.55;13.93;;;1.90;1.00;;;;;;5094192;28;20027;-85
2021/01/10 12:50:29;;;;;;;19.52;14.25;;;1.80;1.00;;;;;;5093925;28;20024;-85